Weather History for Tehachapi, CA

Change the Weather History Date:

Thursday, October 30, 2014

  Actual Average Record
Temperature  
Mean Temperature 60 °F -  
Max Temperature 73 °F 64 °F 77 °F (2012)
Min Temperature 48 °F 37 °F 32 °F (2011)
Degree Days  
Heating Degree Days 4    
Growing Degree Days 10 (Base 50)    
Moisture  
Dew Point 22 °F    
Average Humidity 25    
Maximum Humidity 44    
Minimum Humidity 13    
Precipitation  
Precipitation 0.00 in - - ()
Sea Level Pressure  
Sea Level Pressure 30.09 in    
Wind  
Wind Speed 10 mph (ESE)    
Max Wind Speed 16 mph    
Max Gust Speed 21 mph    
Visibility 10 miles    
Events      
Averages and records for this station are not official NWS values.
T = Trace of Precipitation, MM = Missing Value Source: NWS Daily Summary

Daily Weather History Graph

Daily Weather History Graph

Search for Another Location

Airport:

Trip Planner

Search our weather history database for the weather conditions in past years. The results will help you decide how hot, cold, wet, or windy it might be!

Date:

Astronomy

Oct. 30, 2014 Rise Set
Actual Time 7:13 AM PDT 6:01 PM PDT
Civil Twilight 6:47 AM PDT 6:27 PM PDT
Nautical Twilight 6:17 AM PDT 6:57 PM PDT
Astronomical Twilight 5:47 AM PDT 7:26 PM PDT
Moon 1:19 PM PDT No Moon Set
Length of Visible Light 11h 40m
Length of Day
10h 47m
Waxing Crescent, 46% of the Moon is Illuminated
Oct 30
Waxing Crescent
Oct 30
First Quarter
Nov 6
Full
Nov 14
Last Quarter
Nov 22
New

Hourly Weather History & Observations

Time (PDT) Temp. Dew Point Humidity Pressure Visibility Wind Dir Wind Speed Gust Speed Precip Events Conditions
12:15 AM 50.0 °F 17.6 °F 28% 30.15 in 10.0 mi ESE 6.9 mph - N/A   Clear
12:35 AM 48.2 °F 17.6 °F 30% 30.15 in 10.0 mi SE 8.1 mph - N/A   Clear
12:55 AM 48.2 °F 15.8 °F 27% 30.15 in 10.0 mi SE 10.4 mph - N/A   Clear
1:15 AM 48.2 °F 15.8 °F 27% 30.14 in 10.0 mi ESE 4.6 mph - N/A   Clear
1:35 AM 48.2 °F 15.8 °F 27% 30.14 in 10.0 mi SE 10.4 mph - N/A   Clear
1:55 AM 50.0 °F 15.8 °F 26% 30.13 in 10.0 mi SE 13.8 mph - N/A   Clear
2:15 AM 48.2 °F 17.6 °F 30% 30.13 in 10.0 mi SE 13.8 mph - N/A   Clear
2:35 AM 51.8 °F 17.6 °F 26% 30.13 in 10.0 mi ESE 11.5 mph - N/A   Clear
2:55 AM 53.6 °F 17.6 °F 24% 30.12 in 10.0 mi ESE 12.7 mph - N/A   Clear
3:15 AM 53.6 °F 17.6 °F 24% 30.12 in 10.0 mi ESE 10.4 mph - N/A   Clear
3:35 AM 48.2 °F 17.6 °F 30% 30.12 in 10.0 mi SE 11.5 mph - N/A   Clear
3:55 AM 48.2 °F 17.6 °F 30% 30.12 in 10.0 mi ESE 10.4 mph - N/A   Clear
4:15 AM 48.2 °F 17.6 °F 30% 30.11 in 10.0 mi ESE 11.5 mph - N/A   Clear
4:35 AM 48.2 °F 19.4 °F 32% 30.11 in 10.0 mi SE 11.5 mph - N/A   Clear
4:55 AM 48.2 °F 19.4 °F 32% 30.11 in 10.0 mi SE 13.8 mph - N/A   Clear
5:15 AM 50.0 °F 19.4 °F 30% 30.11 in 10.0 mi SE 12.7 mph - N/A   Clear
5:35 AM 48.2 °F 19.4 °F 32% 30.11 in 10.0 mi SE 9.2 mph - N/A   Clear
5:55 AM 48.2 °F 19.4 °F 32% 30.11 in 10.0 mi SE 9.2 mph - N/A   Clear
6:15 AM 50.0 °F 19.4 °F 30% 30.11 in 10.0 mi ESE 10.4 mph - N/A   Clear
6:35 AM 55.4 °F 19.4 °F 25% 30.11 in 10.0 mi ESE 10.4 mph - N/A   Clear
6:55 AM 55.4 °F 19.4 °F 25% 30.12 in 10.0 mi ESE 8.1 mph - N/A   Clear
7:15 AM 48.2 °F 19.4 °F 32% 30.12 in 10.0 mi SE 9.2 mph - N/A   Clear
7:35 AM 48.2 °F 19.4 °F 32% 30.12 in 10.0 mi SE 10.4 mph - N/A   Clear
7:55 AM 50.0 °F 19.4 °F 30% 30.12 in 10.0 mi ESE 9.2 mph - N/A   Clear
8:15 AM 55.4 °F 19.4 °F 25% 30.13 in 10.0 mi ESE 12.7 mph - N/A   Clear
8:35 AM 57.2 °F 19.4 °F 23% 30.13 in 10.0 mi ESE 11.5 mph - N/A   Clear
8:55 AM 59.0 °F 21.2 °F 23% 30.14 in 10.0 mi SE 11.5 mph - N/A   Clear
9:15 AM 64.4 °F 21.2 °F 19% 30.14 in 10.0 mi ESE 11.5 mph - N/A   Clear
9:35 AM 66.2 °F 19.4 °F 17% 30.14 in 10.0 mi ESE 9.2 mph - N/A   Clear
9:55 AM 68.0 °F 19.4 °F 16% 30.13 in 10.0 mi ESE 13.8 mph - N/A   Clear
10:15 AM 69.8 °F 19.4 °F 15% 30.12 in 10.0 mi ESE 15.0 mph - N/A   Clear
10:35 AM 71.6 °F 19.4 °F 14% 30.13 in 10.0 mi ESE 16.1 mph - N/A   Clear
10:55 AM 71.6 °F 17.6 °F 13% 30.13 in 10.0 mi ESE 16.1 mph 19.6 mph N/A   Clear
11:15 AM 71.6 °F 17.6 °F 13% 30.13 in 10.0 mi ESE 13.8 mph 19.6 mph N/A   Clear
11:35 AM 71.6 °F 19.4 °F 14% 30.13 in 10.0 mi SE 12.7 mph 16.1 mph N/A   Clear
11:55 AM 71.6 °F 19.4 °F 14% 30.12 in 10.0 mi ESE 13.8 mph - N/A   Clear
12:15 PM 73.4 °F 21.2 °F 14% 30.10 in 10.0 mi ESE 13.8 mph 19.6 mph N/A   Clear
12:35 PM 71.6 °F 21.2 °F 15% 30.09 in 10.0 mi SE 13.8 mph 18.4 mph N/A   Clear
12:55 PM 73.4 °F 21.2 °F 14% 30.09 in 5.0 mi ESE 12.7 mph 19.6 mph N/A   Haze
1:15 PM 73.4 °F 19.4 °F 13% 30.08 in 10.0 mi East 15.0 mph 19.6 mph N/A   Clear
1:35 PM 73.4 °F 19.4 °F 13% 30.07 in 10.0 mi ESE 12.7 mph 20.7 mph N/A   Clear
1:55 PM 73.4 °F 19.4 °F 13% 30.06 in 10.0 mi East 12.7 mph 17.3 mph N/A   Clear
2:15 PM 73.4 °F 19.4 °F 13% 30.06 in 10.0 mi ESE 11.5 mph - N/A   Clear
2:35 PM 71.6 °F 19.4 °F 14% 30.06 in 10.0 mi SE 9.2 mph 16.1 mph N/A   Clear
2:55 PM 73.4 °F 19.4 °F 13% 30.05 in 10.0 mi SE 12.7 mph - N/A   Clear
3:15 PM 73.4 °F 19.4 °F 13% 30.05 in 10.0 mi SE 12.7 mph 19.6 mph N/A   Clear
3:35 PM 73.4 °F 19.4 °F 13% 30.04 in 10.0 mi ESE 11.5 mph - N/A   Clear
3:55 PM 73.4 °F 19.4 °F 13% 30.04 in 10.0 mi ESE 10.4 mph - N/A   Clear
4:15 PM 71.6 °F 19.4 °F 14% 30.04 in 10.0 mi ESE 11.5 mph - N/A   Clear
4:35 PM 71.6 °F 19.4 °F 14% 30.04 in 10.0 mi ESE 8.1 mph - N/A   Clear
4:55 PM 69.8 °F 21.2 °F 16% 30.05 in 10.0 mi East 6.9 mph - N/A   Clear
5:15 PM 68.0 °F 21.2 °F 17% 30.05 in 10.0 mi East 9.2 mph - N/A   Clear
5:35 PM 68.0 °F 21.2 °F 17% 30.04 in 10.0 mi East 9.2 mph - N/A   Clear
5:55 PM 66.2 °F 21.2 °F 18% 30.04 in 10.0 mi East 8.1 mph - N/A   Clear
6:15 PM 66.2 °F 21.2 °F 18% 30.03 in 10.0 mi East 5.8 mph - N/A   Clear
6:35 PM 64.4 °F 23.0 °F 21% 30.04 in 10.0 mi Calm Calm - N/A   Clear
6:55 PM 62.6 °F 23.0 °F 22% 30.04 in 10.0 mi SSE 4.6 mph - N/A   Clear
7:15 PM 62.6 °F 28.4 °F 27% 30.05 in 10.0 mi West 6.9 mph - N/A   Clear
7:35 PM 62.6 °F 32.0 °F 32% 30.05 in 10.0 mi WSW 6.9 mph - N/A   Clear
7:55 PM 60.8 °F 33.8 °F 36% 30.06 in 10.0 mi WSW 5.8 mph - N/A   Clear
8:15 PM 57.2 °F 32.0 °F 38% 30.05 in 10.0 mi NNW 6.9 mph - N/A   Clear
8:35 PM 57.2 °F 32.0 °F 38% 30.05 in 10.0 mi NNW 5.8 mph - N/A   Clear
8:55 PM 57.2 °F 35.6 °F 44% 30.05 in 10.0 mi SSW 4.6 mph - N/A   Clear
9:15 PM 53.6 °F 32.0 °F 44% 30.06 in 10.0 mi East 4.6 mph - N/A   Clear
9:35 PM 53.6 °F 32.0 °F 44% 30.05 in 10.0 mi Calm Calm - N/A   Clear
9:55 PM 55.4 °F 32.0 °F 41% 30.05 in 10.0 mi SSE 5.8 mph - N/A   Clear
10:15 PM 53.6 °F 32.0 °F 44% 30.05 in 10.0 mi South 3.5 mph - N/A   Clear
10:35 PM 51.8 °F 30.2 °F 44% 30.06 in 10.0 mi WNW 3.5 mph - N/A   Clear
10:55 PM 50.0 °F 28.4 °F 43% 30.05 in 10.0 mi ENE 3.5 mph - N/A   Clear
11:15 PM 50.0 °F 28.4 °F 43% 30.04 in 10.0 mi WSW 6.9 mph - N/A   Clear
11:35 PM 53.6 °F 28.4 °F 38% 30.04 in 10.0 mi ESE 6.9 mph - N/A   Clear
11:55 PM 50.0 °F 26.6 °F 40% 30.03 in 10.0 mi ENE 5.8 mph - N/A   Clear